sensor_id;sensor_type;location;lat;lon;timestamp;pressure;altitude;pressure_sealevel;temperature;humidity
45888;BME280;31595;51.418;7.572;2022-09-09T00:00:05;99587.00;;;19.18;61.01
45888;BME280;31595;51.418;7.572;2022-09-09T00:02:33;99591.44;;;19.23;61.06
45888;BME280;31595;51.418;7.572;2022-09-09T00:05:12;99576.50;;;19.19;61.06
45888;BME280;31595;51.418;7.572;2022-09-09T00:07:46;99578.97;;;19.24;60.90
45888;BME280;31595;51.418;7.572;2022-09-09T00:10:19;99573.31;;;19.24;61.07
45888;BME280;31595;51.418;7.572;2022-09-09T00:12:56;99573.31;;;19.24;61.36
45888;BME280;31595;51.418;7.572;2022-09-09T00:15:31;99564.06;;;19.27;61.26
45888;BME280;31595;51.418;7.572;2022-09-09T00:18:11;99557.16;;;19.17;61.36
45888;BME280;31595;51.418;7.572;2022-09-09T00:20:48;99567.22;;;19.15;61.61
45888;BME280;31595;51.418;7.572;2022-09-09T00:23:24;99558.69;;;19.00;62.05
45888;BME280;31595;51.418;7.572;2022-09-09T00:26:02;99564.78;;;19.10;62.03
45888;BME280;31595;51.418;7.572;2022-09-09T00:28:31;99565.19;;;19.12;62.05
45888;BME280;31595;51.418;7.572;2022-09-09T00:31:04;99559.16;;;19.13;62.08
45888;BME280;31595;51.418;7.572;2022-09-09T00:33:37;99564.38;;;19.11;62.64
45888;BME280;31595;51.418;7.572;2022-09-09T00:36:13;99575.97;;;18.95;63.44
45888;BME280;31595;51.418;7.572;2022-09-09T00:38:46;99558.63;;;18.93;63.96
45888;BME280;31595;51.418;7.572;2022-09-09T00:41:20;99565.03;;;18.86;64.72
45888;BME280;31595;51.418;7.572;2022-09-09T00:43:56;99554.06;;;18.78;65.26
45888;BME280;31595;51.418;7.572;2022-09-09T00:46:45;99546.09;;;18.87;65.17
45888;BME280;31595;51.418;7.572;2022-09-09T00:49:26;99561.00;;;18.84;65.42
45888;BME280;31595;51.418;7.572;2022-09-09T00:52:08;99538.31;;;18.77;65.79
45888;BME280;31595;51.418;7.572;2022-09-09T00:54:47;99546.72;;;18.66;66.17
45888;BME280;31595;51.418;7.572;2022-09-09T00:57:27;99549.06;;;18.53;66.77
45888;BME280;31595;51.418;7.572;2022-09-09T01:00:17;99546.91;;;18.36;67.52
45888;BME280;31595;51.418;7.572;2022-09-09T01:03:05;99553.28;;;18.29;68.10
45888;BME280;31595;51.418;7.572;2022-09-09T01:05:41;99544.28;;;18.16;68.26
45888;BME280;31595;51.418;7.572;2022-09-09T01:08:23;99538.56;;;18.02;69.12
45888;BME280;31595;51.418;7.572;2022-09-09T01:10:56;99548.09;;;17.90;69.27
45888;BME280;31595;51.418;7.572;2022-09-09T01:13:26;99543.25;;;17.87;69.20
45888;BME280;31595;51.418;7.572;2022-09-09T01:15:56;99550.00;;;17.82;69.18
45888;BME280;31595;51.418;7.572;2022-09-09T01:18:27;99545.88;;;17.76;69.38
45888;BME280;31595;51.418;7.572;2022-09-09T01:21:05;99537.00;;;17.71;69.47
45888;BME280;31595;51.418;7.572;2022-09-09T01:23:47;99543.91;;;17.80;68.96
45888;BME280;31595;51.418;7.572;2022-09-09T01:26:22;99556.06;;;17.84;68.58
45888;BME280;31595;51.418;7.572;2022-09-09T01:28:52;99557.63;;;17.82;68.75
45888;BME280;31595;51.418;7.572;2022-09-09T01:31:23;99554.81;;;17.82;68.71
45888;BME280;31595;51.418;7.572;2022-09-09T01:33:53;99550.72;;;17.76;68.71
45888;BME280;31595;51.418;7.572;2022-09-09T01:36:26;99551.53;;;17.76;69.00
45888;BME280;31595;51.418;7.572;2022-09-09T01:38:57;99546.72;;;17.77;69.04
45888;BME280;31595;51.418;7.572;2022-09-09T01:41:26;99547.84;;;17.72;69.17
45888;BME280;31595;51.418;7.572;2022-09-09T01:43:54;99541.41;;;17.68;69.50
45888;BME280;31595;51.418;7.572;2022-09-09T01:46:22;99537.47;;;17.80;68.97
45888;BME280;31595;51.418;7.572;2022-09-09T01:48:51;99544.59;;;17.67;69.25
45888;BME280;31595;51.418;7.572;2022-09-09T01:51:19;99537.56;;;17.83;68.83
45888;BME280;31595;51.418;7.572;2022-09-09T01:53:47;99547.84;;;17.72;69.06
45888;BME280;31595;51.418;7.572;2022-09-09T01:56:35;99543.13;;;17.80;69.01
45888;BME280;31595;51.418;7.572;2022-09-09T01:59:36;99536.22;;;17.74;69.08
45888;BME280;31595;51.418;7.572;2022-09-09T02:02:10;99539.59;;;17.87;68.59
45888;BME280;31595;51.418;7.572;2022-09-09T02:04:40;99539.03;;;17.74;69.18
45888;BME280;31595;51.418;7.572;2022-09-09T02:07:21;99525.59;;;17.94;68.42
45888;BME280;31595;51.418;7.572;2022-09-09T02:09:58;99540.84;;;17.89;68.43
45888;BME280;31595;51.418;7.572;2022-09-09T02:12:30;99544.03;;;17.88;68.57
45888;BME280;31595;51.418;7.572;2022-09-09T02:15:02;99540.13;;;17.99;68.41
45888;BME280;31595;51.418;7.572;2022-09-09T02:17:34;99548.47;;;17.89;68.43
45888;BME280;31595;51.418;7.572;2022-09-09T02:20:05;99538.56;;;18.05;68.08
45888;BME280;31595;51.418;7.572;2022-09-09T02:22:35;99536.25;;;18.15;67.66
45888;BME280;31595;51.418;7.572;2022-09-09T02:25:07;99536.56;;;18.06;67.97
45888;BME280;31595;51.418;7.572;2022-09-09T02:27:37;99547.06;;;18.09;67.68
45888;BME280;31595;51.418;7.572;2022-09-09T02:30:06;99546.31;;;18.12;67.56
45888;BME280;31595;51.418;7.572;2022-09-09T02:32:35;99541.78;;;18.04;67.81
45888;BME280;31595;51.418;7.572;2022-09-09T02:35:03;99544.47;;;17.90;68.21
45888;BME280;31595;51.418;7.572;2022-09-09T02:37:36;99547.25;;;17.86;68.40
45888;BME280;31595;51.418;7.572;2022-09-09T02:40:06;99538.78;;;17.86;68.47
45888;BME280;31595;51.418;7.572;2022-09-09T02:42:40;99538.66;;;17.75;68.74
45888;BME280;31595;51.418;7.572;2022-09-09T02:45:09;99546.72;;;17.77;68.84
45888;BME280;31595;51.418;7.572;2022-09-09T02:47:39;99542.31;;;17.79;68.57
45888;BME280;31595;51.418;7.572;2022-09-09T02:50:16;99533.38;;;17.74;68.52
45888;BME280;31595;51.418;7.572;2022-09-09T02:53:01;99536.59;;;17.72;68.71
45888;BME280;31595;51.418;7.572;2022-09-09T02:55:38;99532.53;;;17.66;69.02
45888;BME280;31595;51.418;7.572;2022-09-09T02:58:12;99538.91;;;17.63;69.00
45888;BME280;31595;51.418;7.572;2022-09-09T03:00:44;99539.66;;;17.56;69.61
45888;BME280;31595;51.418;7.572;2022-09-09T03:03:12;99541.22;;;17.54;69.25
45888;BME280;31595;51.418;7.572;2022-09-09T03:05:41;99538.06;;;17.59;69.00
45888;BME280;31595;51.418;7.572;2022-09-09T03:08:09;99539.53;;;17.45;69.61
45888;BME280;31595;51.418;7.572;2022-09-09T03:10:39;99536.59;;;17.38;70.00
45888;BME280;31595;51.418;7.572;2022-09-09T03:13:06;99550.72;;;17.42;69.79
45888;BME280;31595;51.418;7.572;2022-09-09T03:15:36;99553.91;;;17.40;69.91
45888;BME280;31595;51.418;7.572;2022-09-09T03:18:04;99556.19;;;17.28;70.30
45888;BME280;31595;51.418;7.572;2022-09-09T03:20:31;99544.63;;;17.36;70.24
45888;BME280;31595;51.418;7.572;2022-09-09T03:22:59;99546.16;;;17.30;70.59
45888;BME280;31595;51.418;7.572;2022-09-09T03:25:27;99547.06;;;17.38;70.24
45888;BME280;31595;51.418;7.572;2022-09-09T03:27:55;99543.78;;;17.32;70.56
45888;BME280;31595;51.418;7.572;2022-09-09T03:30:23;99531.34;;;17.33;70.53
45888;BME280;31595;51.418;7.572;2022-09-09T03:32:52;99528.94;;;17.35;70.61
45888;BME280;31595;51.418;7.572;2022-09-09T03:35:20;99528.03;;;17.28;70.66
45888;BME280;31595;51.418;7.572;2022-09-09T03:37:48;99527.66;;;17.29;70.62
45888;BME280;31595;51.418;7.572;2022-09-09T03:40:15;99531.75;;;17.35;70.29
45888;BME280;31595;51.418;7.572;2022-09-09T03:42:46;99531.66;;;17.28;70.57
45888;BME280;31595;51.418;7.572;2022-09-09T03:45:14;99537.75;;;17.34;70.39
45888;BME280;31595;51.418;7.572;2022-09-09T03:47:42;99535.38;;;17.36;70.20
45888;BME280;31595;51.418;7.572;2022-09-09T03:50:12;99534.44;;;17.24;71.02
45888;BME280;31595;51.418;7.572;2022-09-09T03:52:40;99532.25;;;17.11;71.45
45888;BME280;31595;51.418;7.572;2022-09-09T03:55:09;99528.03;;;17.28;70.83
45888;BME280;31595;51.418;7.572;2022-09-09T03:57:36;99525.00;;;17.10;71.67
45888;BME280;31595;51.418;7.572;2022-09-09T04:00:05;99533.03;;;17.08;71.98
45888;BME280;31595;51.418;7.572;2022-09-09T04:02:33;99538.59;;;17.04;72.13
45888;BME280;31595;51.418;7.572;2022-09-09T04:05:00;99528.56;;;17.07;72.14
45888;BME280;31595;51.418;7.572;2022-09-09T04:07:29;99533.09;;;17.15;71.93
45888;BME280;31595;51.418;7.572;2022-09-09T04:09:56;99539.06;;;17.10;72.00
45888;BME280;31595;51.418;7.572;2022-09-09T04:12:24;99536.19;;;17.06;72.31
45888;BME280;31595;51.418;7.572;2022-09-09T04:14:51;99534.31;;;17.14;72.00
45888;BME280;31595;51.418;7.572;2022-09-09T04:17:18;99532.97;;;17.04;72.46
45888;BME280;31595;51.418;7.572;2022-09-09T04:19:46;99533.03;;;17.11;72.35
45888;BME280;31595;51.418;7.572;2022-09-09T04:22:13;99538.31;;;17.13;72.10
45888;BME280;31595;51.418;7.572;2022-09-09T04:24:42;99527.81;;;17.10;72.29
45888;BME280;31595;51.418;7.572;2022-09-09T04:27:09;99534.31;;;17.14;72.13
45888;BME280;31595;51.418;7.572;2022-09-09T04:29:36;99539.94;;;17.14;72.42
45888;BME280;31595;51.418;7.572;2022-09-09T04:32:04;99533.59;;;17.20;71.93
45888;BME280;31595;51.418;7.572;2022-09-09T04:34:31;99533.03;;;17.11;72.49
45888;BME280;31595;51.418;7.572;2022-09-09T04:36:58;99526.63;;;17.11;72.53
45888;BME280;31595;51.418;7.572;2022-09-09T04:39:26;99528.69;;;17.14;72.48
45888;BME280;31595;51.418;7.572;2022-09-09T04:41:54;99532.59;;;17.06;72.81
45888;BME280;31595;51.418;7.572;2022-09-09T04:44:23;99542.88;;;16.94;73.14
45888;BME280;31595;51.418;7.572;2022-09-09T04:46:50;99535.00;;;17.07;72.88
45888;BME280;31595;51.418;7.572;2022-09-09T04:49:18;99541.03;;;16.79;74.08
45888;BME280;31595;51.418;7.572;2022-09-09T04:51:45;99536.00;;;16.92;73.70
45888;BME280;31595;51.418;7.572;2022-09-09T04:54:12;99533.25;;;16.95;73.39
45888;BME280;31595;51.418;7.572;2022-09-09T04:56:40;99538.81;;;16.92;73.61
45888;BME280;31595;51.418;7.572;2022-09-09T04:59:09;99545.13;;;17.12;72.58
45888;BME280;31595;51.418;7.572;2022-09-09T05:01:37;99535.78;;;17.04;72.87
45888;BME280;31595;51.418;7.572;2022-09-09T05:04:04;99535.06;;;17.11;72.75
45888;BME280;31595;51.418;7.572;2022-09-09T05:06:31;99538.66;;;17.08;73.04
45888;BME280;31595;51.418;7.572;2022-09-09T05:08:59;99544.03;;;17.20;72.57
45888;BME280;31595;51.418;7.572;2022-09-09T05:11:28;99532.59;;;17.06;72.77
45888;BME280;31595;51.418;7.572;2022-09-09T05:13:55;99538.44;;;17.23;72.02
45888;BME280;31595;51.418;7.572;2022-09-09T05:16:24;99553.50;;;17.38;71.58
45888;BME280;31595;51.418;7.572;2022-09-09T05:18:52;99546.44;;;17.52;71.05
45888;BME280;31595;51.418;7.572;2022-09-09T05:21:20;99534.81;;;17.57;70.63
45888;BME280;31595;51.418;7.572;2022-09-09T05:23:48;99538.00;;;17.52;70.72
45888;BME280;31595;51.418;7.572;2022-09-09T05:26:18;99544.84;;;17.54;70.86
45888;BME280;31595;51.418;7.572;2022-09-09T05:28:46;99542.88;;;17.58;70.44
45888;BME280;31595;51.418;7.572;2022-09-09T05:31:17;99540.13;;;17.65;70.13
45888;BME280;31595;51.418;7.572;2022-09-09T05:33:47;99540.50;;;17.60;70.29
45888;BME280;31595;51.418;7.572;2022-09-09T05:36:16;99538.06;;;17.59;70.33
45888;BME280;31595;51.418;7.572;2022-09-09T05:38:44;99550.97;;;17.60;70.10
45888;BME280;31595;51.418;7.572;2022-09-09T05:41:12;99545.75;;;17.62;70.39
45888;BME280;31595;51.418;7.572;2022-09-09T05:43:41;99548.59;;;17.65;70.09
45888;BME280;31595;51.418;7.572;2022-09-09T05:46:11;99551.94;;;17.75;69.88
45888;BME280;31595;51.418;7.572;2022-09-09T05:48:40;99545.28;;;17.56;70.30
45888;BME280;31595;51.418;7.572;2022-09-09T05:51:11;99548.75;;;17.80;69.38
45888;BME280;31595;51.418;7.572;2022-09-09T05:53:38;99545.88;;;17.76;69.62
45888;BME280;31595;51.418;7.572;2022-09-09T05:56:08;99547.09;;;17.75;69.71
45888;BME280;31595;51.418;7.572;2022-09-09T05:58:36;99543.25;;;17.87;69.32
45888;BME280;31595;51.418;7.572;2022-09-09T06:01:05;99546.44;;;17.85;69.28
45888;BME280;31595;51.418;7.572;2022-09-09T06:03:35;99544.03;;;17.88;69.29
45888;BME280;31595;51.418;7.572;2022-09-09T06:06:04;99551.78;;;17.98;69.06
45888;BME280;31595;51.418;7.572;2022-09-09T06:08:34;99556.16;;;17.92;69.05
45888;BME280;31595;51.418;7.572;2022-09-09T06:11:03;99558.19;;;17.95;68.87
45888;BME280;31595;51.418;7.572;2022-09-09T06:13:31;99556.16;;;17.95;69.10
45888;BME280;31595;51.418;7.572;2022-09-09T06:15:59;99554.63;;;17.98;69.01
45888;BME280;31595;51.418;7.572;2022-09-09T06:18:26;99550.66;;;18.06;68.74
45888;BME280;31595;51.418;7.572;2022-09-09T06:20:55;99553.41;;;17.99;68.96
45888;BME280;31595;51.418;7.572;2022-09-09T06:23:23;99554.28;;;18.07;69.09
45888;BME280;31595;51.418;7.572;2022-09-09T06:26:00;99557.75;;;17.93;69.17
45888;BME280;31595;51.418;7.572;2022-09-09T06:28:28;99553.34;;;17.95;68.92
45888;BME280;31595;51.418;7.572;2022-09-09T06:30:57;99552.13;;;17.89;69.21
45888;BME280;31595;51.418;7.572;2022-09-09T06:33:31;99562.56;;;17.89;69.36
45888;BME280;31595;51.418;7.572;2022-09-09T06:36:01;99564.53;;;17.84;69.40
45888;BME280;31595;51.418;7.572;2022-09-09T06:38:32;99550.00;;;17.82;69.45
45888;BME280;31595;51.418;7.572;2022-09-09T06:41:04;99559.31;;;17.87;69.48
45888;BME280;31595;51.418;7.572;2022-09-09T06:43:32;99560.75;;;17.73;69.84
45888;BME280;31595;51.418;7.572;2022-09-09T06:46:02;99563.53;;;17.70;69.90
45888;BME280;31595;51.418;7.572;2022-09-09T06:48:30;99554.34;;;17.76;69.83
45888;BME280;31595;51.418;7.572;2022-09-09T06:51:01;99557.91;;;18.07;68.76
45888;BME280;31595;51.418;7.572;2022-09-09T06:53:29;99561.63;;;18.15;68.47
45888;BME280;31595;51.418;7.572;2022-09-09T06:55:57;99562.88;;;18.21;67.94
45888;BME280;31595;51.418;7.572;2022-09-09T06:58:25;99563.16;;;18.09;68.26
45888;BME280;31595;51.418;7.572;2022-09-09T07:00:53;99558.34;;;18.09;68.41
45888;BME280;31595;51.418;7.572;2022-09-09T07:03:21;99565.47;;;17.96;68.84
45888;BME280;31595;51.418;7.572;2022-09-09T07:05:54;99571.41;;;17.87;69.51
45888;BME280;31595;51.418;7.572;2022-09-09T07:08:22;99582.44;;;17.69;70.29
45888;BME280;31595;51.418;7.572;2022-09-09T07:10:50;99571.03;;;17.58;70.21
45888;BME280;31595;51.418;7.572;2022-09-09T07:13:20;99575.88;;;17.58;70.44
45888;BME280;31595;51.418;7.572;2022-09-09T07:15:52;99573.81;;;17.55;70.72
45888;BME280;31595;51.418;7.572;2022-09-09T07:18:26;99579.56;;;17.65;70.48
45888;BME280;31595;51.418;7.572;2022-09-09T07:20:56;99573.81;;;17.85;70.11
45888;BME280;31595;51.418;7.572;2022-09-09T07:23:24;99577.22;;;18.05;69.65
45888;BME280;31595;51.418;7.572;2022-09-09T07:25:52;99567.22;;;18.11;69.32
45888;BME280;31595;51.418;7.572;2022-09-09T07:28:20;99573.09;;;18.36;67.94
45888;BME280;31595;51.418;7.572;2022-09-09T07:30:54;99582.25;;;18.74;67.39
45888;BME280;31595;51.418;7.572;2022-09-09T07:33:22;99571.56;;;19.01;66.14
45888;BME280;31595;51.418;7.572;2022-09-09T07:35:50;99584.41;;;18.92;65.75
45888;BME280;31595;51.418;7.572;2022-09-09T07:38:18;99578.91;;;19.13;65.14
45888;BME280;31595;51.418;7.572;2022-09-09T07:40:49;99574.84;;;19.11;65.05
45888;BME280;31595;51.418;7.572;2022-09-09T07:43:16;99577.41;;;19.30;64.68
45888;BME280;31595;51.418;7.572;2022-09-09T07:45:44;99579.16;;;19.67;63.55
45888;BME280;31595;51.418;7.572;2022-09-09T07:48:14;99583.28;;;19.95;62.75
45888;BME280;31595;51.418;7.572;2022-09-09T07:50:41;99580.94;;;20.47;60.93
45888;BME280;31595;51.418;7.572;2022-09-09T07:53:08;99580.53;;;20.99;59.17
45888;BME280;31595;51.418;7.572;2022-09-09T07:55:36;99584.47;;;21.52;58.05
45888;BME280;31595;51.418;7.572;2022-09-09T07:58:03;99582.34;;;22.40;55.31
45888;BME280;31595;51.418;7.572;2022-09-09T08:00:30;99596.81;;;23.05;52.58
45888;BME280;31595;51.418;7.572;2022-09-09T08:02:59;99585.38;;;23.50;51.47
45888;BME280;31595;51.418;7.572;2022-09-09T08:05:28;99576.13;;;23.77;50.57
45888;BME280;31595;51.418;7.572;2022-09-09T08:07:55;99586.00;;;23.31;51.11
45888;BME280;31595;51.418;7.572;2022-09-09T08:10:22;99586.91;;;23.59;50.52
45888;BME280;31595;51.418;7.572;2022-09-09T08:12:50;99581.28;;;23.17;50.63
45888;BME280;31595;51.418;7.572;2022-09-09T08:15:18;99581.16;;;22.38;53.07
45888;BME280;31595;51.418;7.572;2022-09-09T08:17:45;99600.69;;;22.28;52.91
45888;BME280;31595;51.418;7.572;2022-09-09T08:20:13;99590.94;;;22.33;53.32
45888;BME280;31595;51.418;7.572;2022-09-09T08:22:42;99587.50;;;23.05;51.67
45888;BME280;31595;51.418;7.572;2022-09-09T08:25:09;99581.22;;;23.89;49.27
45888;BME280;31595;51.418;7.572;2022-09-09T08:27:37;99575.97;;;25.13;46.62
45888;BME280;31595;51.418;7.572;2022-09-09T08:30:05;99582.03;;;25.79;44.36
45888;BME280;31595;51.418;7.572;2022-09-09T08:32:35;99578.03;;;26.65;42.63
45888;BME280;31595;51.418;7.572;2022-09-09T08:35:03;99582.38;;;27.90;39.84
45888;BME280;31595;51.418;7.572;2022-09-09T08:37:30;99576.53;;;29.19;37.08
45888;BME280;31595;51.418;7.572;2022-09-09T08:40:00;99566.75;;;30.67;34.57
45888;BME280;31595;51.418;7.572;2022-09-09T08:42:35;99576.16;;;30.67;34.60
45888;BME280;31595;51.418;7.572;2022-09-09T08:45:24;99575.63;;;30.19;34.34
45888;BME280;31595;51.418;7.572;2022-09-09T08:48:05;99581.25;;;31.50;32.36
45888;BME280;31595;51.418;7.572;2022-09-09T08:50:37;99594.66;;;30.57;33.34
45888;BME280;31595;51.418;7.572;2022-09-09T08:53:11;99573.88;;;31.30;31.99
45888;BME280;31595;51.418;7.572;2022-09-09T08:55:46;99573.66;;;30.79;33.24
45888;BME280;31595;51.418;7.572;2022-09-09T08:58:17;99582.00;;;30.95;32.97
45888;BME280;31595;51.418;7.572;2022-09-09T09:00:57;99573.88;;;31.67;31.15
45888;BME280;31595;51.418;7.572;2022-09-09T09:03:37;99596.88;;;30.53;32.07
45888;BME280;31595;51.418;7.572;2022-09-09T09:06:17;99580.72;;;31.05;31.44
45888;BME280;31595;51.418;7.572;2022-09-09T09:08:52;99590.91;;;30.79;32.34
45888;BME280;31595;51.418;7.572;2022-09-09T09:11:24;99572.59;;;31.22;32.06
45888;BME280;31595;51.418;7.572;2022-09-09T09:13:54;99598.94;;;31.85;30.45
45888;BME280;31595;51.418;7.572;2022-09-09T09:16:29;99586.63;;;32.03;29.75
45888;BME280;31595;51.418;7.572;2022-09-09T09:19:00;99587.59;;;32.43;29.69
45888;BME280;31595;51.418;7.572;2022-09-09T09:21:34;99587.69;;;33.54;27.97
45888;BME280;31595;51.418;7.572;2022-09-09T09:24:09;99578.75;;;34.11;27.02
45888;BME280;31595;51.418;7.572;2022-09-09T09:26:43;99578.44;;;33.26;27.73
45888;BME280;31595;51.418;7.572;2022-09-09T09:29:12;99578.84;;;32.61;27.75
45888;BME280;31595;51.418;7.572;2022-09-09T09:31:43;99572.31;;;32.51;28.08
45888;BME280;31595;51.418;7.572;2022-09-09T09:34:14;99583.38;;;32.20;28.83
45888;BME280;31595;51.418;7.572;2022-09-09T09:36:43;99574.03;;;31.08;30.31
45888;BME280;31595;51.418;7.572;2022-09-09T09:39:23;99578.75;;;32.04;29.17
45888;BME280;31595;51.418;7.572;2022-09-09T09:41:53;99573.84;;;32.71;27.96
45888;BME280;31595;51.418;7.572;2022-09-09T09:44:23;99568.75;;;31.62;29.77
45888;BME280;31595;51.418;7.572;2022-09-09T09:46:51;99573.94;;;32.10;28.31
45888;BME280;31595;51.418;7.572;2022-09-09T09:49:19;99572.28;;;33.72;26.78
45888;BME280;31595;51.418;7.572;2022-09-09T09:51:46;99569.72;;;33.35;27.32
45888;BME280;31595;51.418;7.572;2022-09-09T09:54:18;99573.53;;;32.69;28.09
45888;BME280;31595;51.418;7.572;2022-09-09T09:56:51;99573.53;;;31.01;30.55
45888;BME280;31595;51.418;7.572;2022-09-09T09:59:22;99579.63;;;28.77;33.94
45888;BME280;31595;51.418;7.572;2022-09-09T10:01:49;99581.75;;;29.11;33.63
45888;BME280;31595;51.418;7.572;2022-09-09T10:04:19;99586.50;;;28.92;33.98
45888;BME280;31595;51.418;7.572;2022-09-09T10:06:49;99589.38;;;28.41;33.70
45888;BME280;31595;51.418;7.572;2022-09-09T10:09:22;99591.22;;;28.09;34.53
45888;BME280;31595;51.418;7.572;2022-09-09T10:11:56;99598.22;;;28.46;32.86
45888;BME280;31595;51.418;7.572;2022-09-09T10:14:29;99589.84;;;28.39;33.64
45888;BME280;31595;51.418;7.572;2022-09-09T10:17:08;99581.66;;;27.44;34.47
45888;BME280;31595;51.418;7.572;2022-09-09T10:19:42;99596.47;;;27.26;34.63
45888;BME280;31595;51.418;7.572;2022-09-09T10:22:23;99581.22;;;28.01;33.54
45888;BME280;31595;51.418;7.572;2022-09-09T10:25:10;99580.47;;;29.12;31.66
45888;BME280;31595;51.418;7.572;2022-09-09T10:27:55;99581.81;;;28.47;32.83
45888;BME280;31595;51.418;7.572;2022-09-09T10:30:35;99587.00;;;29.25;31.85
45888;BME280;31595;51.418;7.572;2022-09-09T10:33:10;99582.75;;;28.44;32.69
45888;BME280;31595;51.418;7.572;2022-09-09T10:35:44;99577.81;;;28.44;33.06
45888;BME280;31595;51.418;7.572;2022-09-09T10:38:17;99573.59;;;29.44;30.99
45888;BME280;31595;51.418;7.572;2022-09-09T10:41:00;99563.50;;;29.18;31.15
45888;BME280;31595;51.418;7.572;2022-09-09T10:43:47;99557.88;;;30.43;30.29
45888;BME280;31595;51.418;7.572;2022-09-09T10:46:24;99570.69;;;30.20;29.53
45888;BME280;31595;51.418;7.572;2022-09-09T10:49:09;99573.66;;;29.53;29.81
45888;BME280;31595;51.418;7.572;2022-09-09T10:51:48;99560.53;;;27.67;32.53
45888;BME280;31595;51.418;7.572;2022-09-09T10:54:27;99580.81;;;27.31;33.69
45888;BME280;31595;51.418;7.572;2022-09-09T10:56:59;99563.75;;;26.65;34.79
45888;BME280;31595;51.418;7.572;2022-09-09T10:59:33;99567.03;;;25.95;36.23
45888;BME280;31595;51.418;7.572;2022-09-09T11:02:07;99580.78;;;26.52;35.44
45888;BME280;31595;51.418;7.572;2022-09-09T11:04:43;99572.22;;;27.73;33.46
45888;BME280;31595;51.418;7.572;2022-09-09T11:07:18;99572.41;;;26.78;35.32
45888;BME280;31595;51.418;7.572;2022-09-09T11:09:53;99585.41;;;25.73;37.68
45888;BME280;31595;51.418;7.572;2022-09-09T11:12:23;99585.63;;;25.23;38.34
45888;BME280;31595;51.418;7.572;2022-09-09T11:14:55;99577.06;;;25.23;38.79
45888;BME280;31595;51.418;7.572;2022-09-09T11:17:30;99577.22;;;25.96;37.75
45888;BME280;31595;51.418;7.572;2022-09-09T11:20:02;99590.22;;;27.44;35.90
45888;BME280;31595;51.418;7.572;2022-09-09T11:22:33;99597.72;;;28.22;35.19
45888;BME280;31595;51.418;7.572;2022-09-09T11:25:06;99586.53;;;28.79;33.72
45888;BME280;31595;51.418;7.572;2022-09-09T11:27:38;99578.69;;;28.92;33.23
45888;BME280;31595;51.418;7.572;2022-09-09T11:30:32;99581.38;;;29.66;32.58
45888;BME280;31595;51.418;7.572;2022-09-09T11:33:26;99566.94;;;30.82;30.91
45888;BME280;31595;51.418;7.572;2022-09-09T11:36:06;99570.56;;;29.92;31.69
45888;BME280;31595;51.418;7.572;2022-09-09T11:38:44;99570.81;;;29.63;32.21
45888;BME280;31595;51.418;7.572;2022-09-09T11:41:13;99552.56;;;29.69;32.76
45888;BME280;31595;51.418;7.572;2022-09-09T11:43:43;99558.94;;;30.77;31.12
45888;BME280;31595;51.418;7.572;2022-09-09T11:46:13;99568.91;;;31.68;29.38
45888;BME280;31595;51.418;7.572;2022-09-09T11:48:44;99551.44;;;31.90;29.58
45888;BME280;31595;51.418;7.572;2022-09-09T11:51:24;99563.00;;;31.71;29.43
45888;BME280;31595;51.418;7.572;2022-09-09T11:53:55;99564.13;;;31.65;29.11
45888;BME280;31595;51.418;7.572;2022-09-09T11:56:27;99557.00;;;31.93;29.13
45888;BME280;31595;51.418;7.572;2022-09-09T11:58:58;99558.78;;;31.91;28.99
45888;BME280;31595;51.418;7.572;2022-09-09T12:01:38;99557.72;;;31.42;29.12
45888;BME280;31595;51.418;7.572;2022-09-09T12:07:00;99555.19;;;30.08;30.45
45888;BME280;31595;51.418;7.572;2022-09-09T12:09:45;99548.84;;;30.63;29.46
45888;BME280;31595;51.418;7.572;2022-09-09T12:12:28;99552.84;;;30.25;29.76
45888;BME280;31595;51.418;7.572;2022-09-09T12:15:22;99553.09;;;30.40;29.50
45888;BME280;31595;51.418;7.572;2022-09-09T12:17:52;99553.56;;;31.62;28.14
45888;BME280;31595;51.418;7.572;2022-09-09T12:20:22;99544.69;;;30.23;30.21
45888;BME280;31595;51.418;7.572;2022-09-09T12:23:04;99553.38;;;29.70;31.00
45888;BME280;31595;51.418;7.572;2022-09-09T12:25:52;99558.66;;;29.14;31.78
45888;BME280;31595;51.418;7.572;2022-09-09T12:28:27;99553.06;;;28.63;32.44
45888;BME280;31595;51.418;7.572;2022-09-09T12:31:04;99566.13;;;28.00;33.01
45888;BME280;31595;51.418;7.572;2022-09-09T12:33:36;99554.38;;;27.10;34.91
45888;BME280;31595;51.418;7.572;2022-09-09T12:36:06;99551.78;;;26.70;35.34
45888;BME280;31595;51.418;7.572;2022-09-09T12:38:40;99553.06;;;26.33;36.38
45888;BME280;31595;51.418;7.572;2022-09-09T12:41:19;99549.06;;;26.30;36.45
45888;BME280;31595;51.418;7.572;2022-09-09T12:43:48;99554.56;;;25.85;37.33
45888;BME280;31595;51.418;7.572;2022-09-09T12:46:32;99560.16;;;25.72;37.68
45888;BME280;31595;51.418;7.572;2022-09-09T12:49:05;99574.50;;;25.48;37.51
45888;BME280;31595;51.418;7.572;2022-09-09T12:51:33;99545.19;;;25.48;37.13
45888;BME280;31595;51.418;7.572;2022-09-09T12:54:03;99546.41;;;26.72;34.92
45888;BME280;31595;51.418;7.572;2022-09-09T12:56:34;99539.34;;;27.52;33.97
45888;BME280;31595;51.418;7.572;2022-09-09T12:59:02;99531.63;;;27.36;33.60
45888;BME280;31595;51.418;7.572;2022-09-09T13:01:31;99527.41;;;27.11;34.25
45888;BME280;31595;51.418;7.572;2022-09-09T13:03:59;99536.41;;;26.81;34.70
45888;BME280;31595;51.418;7.572;2022-09-09T13:06:30;99534.91;;;26.60;35.31
45888;BME280;31595;51.418;7.572;2022-09-09T13:09:16;99519.63;;;26.17;35.12
45888;BME280;31595;51.418;7.572;2022-09-09T13:11:48;99538.13;;;25.92;35.37
45888;BME280;31595;51.418;7.572;2022-09-09T13:14:27;99538.97;;;25.73;35.80
45888;BME280;31595;51.418;7.572;2022-09-09T13:16:57;99524.94;;;25.42;35.95
45888;BME280;31595;51.418;7.572;2022-09-09T13:19:26;99536.72;;;24.57;37.52
45888;BME280;31595;51.418;7.572;2022-09-09T13:21:58;99531.53;;;24.25;38.22
45888;BME280;31595;51.418;7.572;2022-09-09T13:24:31;99528.81;;;24.18;38.88
45888;BME280;31595;51.418;7.572;2022-09-09T13:27:00;99535.03;;;24.09;39.06